createdAt,value
2023-04-09T00:00:11.308Z,28.80
2023-04-09T00:01:11.266Z,29.60
2023-04-09T00:02:11.311Z,29.20
2023-04-09T00:03:11.293Z,29.30
2023-04-09T00:04:11.222Z,30.40
2023-04-09T00:05:11.227Z,30.70
2023-04-09T00:06:11.192Z,30.10
2023-04-09T00:07:11.209Z,30.00
2023-04-09T00:08:11.158Z,28.70
2023-04-09T00:09:11.191Z,30.70
2023-04-09T00:10:11.145Z,30.60
2023-04-09T00:11:11.184Z,31.20
2023-04-09T00:12:11.131Z,32.10
2023-04-09T00:13:11.142Z,30.60
2023-04-09T00:14:11.095Z,31.00
2023-04-09T00:15:14.998Z,30.30
2023-04-09T00:16:11.166Z,29.80
2023-04-09T00:17:11.100Z,30.90
2023-04-09T00:18:11.057Z,31.10
2023-04-09T00:19:11.037Z,31.50
2023-04-09T00:20:11.023Z,30.20
2023-04-09T00:21:11.025Z,30.40
2023-04-09T00:22:11.013Z,31.60
2023-04-09T00:23:12.965Z,31.70
2023-04-09T00:24:10.964Z,31.60
2023-04-09T00:25:10.988Z,31.70
2023-04-09T00:26:10.935Z,32.70
2023-04-09T00:27:10.925Z,32.60
2023-04-09T00:28:10.936Z,32.90
2023-04-09T00:29:10.916Z,31.70
2023-04-09T00:30:10.896Z,32.40
2023-04-09T00:31:10.908Z,32.10
2023-04-09T00:32:10.864Z,32.90
2023-04-09T00:33:10.849Z,32.10
2023-04-09T00:34:10.870Z,31.80
2023-04-09T00:35:10.819Z,32.30
2023-04-09T00:36:10.855Z,32.40
2023-04-09T00:37:10.827Z,32.10
2023-04-09T00:38:10.835Z,31.70
2023-04-09T00:39:10.788Z,33.30
2023-04-09T00:40:10.831Z,33.70
2023-04-09T00:41:10.772Z,32.90
2023-04-09T00:42:10.739Z,30.70
2023-04-09T00:43:10.824Z,30.90
2023-04-09T00:44:10.724Z,32.10
2023-04-09T00:45:10.712Z,32.40
2023-04-09T00:46:10.776Z,31.90
2023-04-09T00:47:10.696Z,32.00
2023-04-09T00:48:10.765Z,32.10
2023-04-09T00:49:10.760Z,32.60
2023-04-09T00:50:10.652Z,31.80
2023-04-09T00:51:10.671Z,33.00
2023-04-09T00:52:10.662Z,33.50
2023-04-09T00:53:10.617Z,32.70
2023-04-09T00:54:10.627Z,31.80
2023-04-09T00:55:10.596Z,32.00
2023-04-09T00:56:10.587Z,32.70
2023-04-09T00:57:10.574Z,32.70
2023-04-09T00:58:10.606Z,32.10
2023-04-09T00:59:10.539Z,31.70
2023-04-09T01:00:10.533Z,32.70
2023-04-09T01:01:10.538Z,32.00
2023-04-09T01:02:10.628Z,33.00
2023-04-09T01:03:17.093Z,32.10
2023-04-09T01:04:10.456Z,32.30
2023-04-09T01:05:10.456Z,32.10
2023-04-09T01:06:10.430Z,31.70
2023-04-09T01:07:10.412Z,33.40
2023-04-09T01:08:10.399Z,33.50
2023-04-09T01:09:10.420Z,34.00
2023-04-09T01:10:10.399Z,33.00
2023-04-09T01:11:10.374Z,33.00
2023-04-09T01:12:10.376Z,32.80
2023-04-09T01:13:10.364Z,32.40
2023-04-09T01:14:10.328Z,32.90
2023-04-09T01:15:10.332Z,32.30
2023-04-09T01:16:10.342Z,31.80
2023-04-09T01:17:10.291Z,33.40
2023-04-09T01:18:10.281Z,34.40
2023-04-09T01:19:10.297Z,32.60
2023-04-09T01:20:10.268Z,33.30
2023-04-09T01:21:10.253Z,33.10
2023-04-09T01:22:10.223Z,33.70
2023-04-09T01:23:10.221Z,33.60
2023-04-09T01:24:10.209Z,34.30
2023-04-09T01:25:10.215Z,33.90
2023-04-09T01:26:10.181Z,34.40
2023-04-09T01:27:10.188Z,33.80
2023-04-09T01:28:10.185Z,35.10
2023-04-09T01:29:10.144Z,34.60
2023-04-09T01:30:10.121Z,36.30
2023-04-09T01:31:10.164Z,35.00
2023-04-09T01:32:10.123Z,34.10
2023-04-09T01:33:10.141Z,34.80
2023-04-09T01:34:10.160Z,34.90
2023-04-09T01:35:10.072Z,36.40
2023-04-09T01:36:10.080Z,35.40
2023-04-09T01:37:10.051Z,35.50
2023-04-09T01:38:10.050Z,33.80
2023-04-09T01:39:10.034Z,35.10
2023-04-09T01:40:10.022Z,35.70
2023-04-09T01:41:09.981Z,35.90
2023-04-09T01:42:09.970Z,35.50
2023-04-09T01:43:09.956Z,36.60
2023-04-09T01:44:10.002Z,37.30
2023-04-09T01:45:09.962Z,37.30
2023-04-09T01:46:09.987Z,37.60
2023-04-09T01:47:09.908Z,38.00
2023-04-09T01:48:09.911Z,38.70
2023-04-09T01:49:09.911Z,39.50
2023-04-09T01:50:09.888Z,38.80
2023-04-09T01:51:09.894Z,38.50
2023-04-09T01:52:09.892Z,39.70
2023-04-09T01:53:09.866Z,39.20
2023-04-09T01:54:09.852Z,39.40
2023-04-09T01:55:09.829Z,41.40
2023-04-09T01:56:09.838Z,42.10
2023-04-09T01:57:09.788Z,41.80
2023-04-09T01:58:09.796Z,42.10
2023-04-09T01:59:09.785Z,41.40
2023-04-09T02:00:09.752Z,43.70
2023-04-09T02:01:09.750Z,44.20
2023-04-09T02:02:09.799Z,42.50
2023-04-09T02:03:09.829Z,44.60
2023-04-09T02:04:09.706Z,47.10
2023-04-09T02:05:09.686Z,45.70
2023-04-09T02:06:09.692Z,46.70
2023-04-09T02:07:09.722Z,46.90
2023-04-09T02:08:09.668Z,47.50
2023-04-09T02:09:09.639Z,47.50
2023-04-09T02:10:09.658Z,49.00
2023-04-09T02:11:09.602Z,51.30
2023-04-09T02:12:09.613Z,53.60
2023-04-09T02:13:09.592Z,55.00
2023-04-09T02:14:09.598Z,53.30
2023-04-09T02:15:09.572Z,51.50
2023-04-09T02:16:09.564Z,53.10
2023-04-09T02:17:09.554Z,53.00
2023-04-09T02:18:09.514Z,54.20
2023-04-09T02:19:09.512Z,53.40
2023-04-09T02:20:09.540Z,54.30
2023-04-09T02:21:09.499Z,57.20
2023-04-09T02:22:09.482Z,56.90
2023-04-09T02:23:09.459Z,56.80
2023-04-09T02:24:09.456Z,55.00
2023-04-09T02:25:09.450Z,57.60
2023-04-09T02:26:09.462Z,56.10
2023-04-09T02:27:09.433Z,54.10
2023-04-09T02:28:09.401Z,56.70
2023-04-09T02:29:09.393Z,57.60
2023-04-09T02:30:09.397Z,57.30
2023-04-09T02:31:09.386Z,57.50
2023-04-09T02:32:09.363Z,60.30
2023-04-09T02:33:09.333Z,60.90
2023-04-09T02:34:09.345Z,62.80
2023-04-09T02:35:09.352Z,60.70
2023-04-09T02:36:09.374Z,59.60
2023-04-09T02:37:09.318Z,59.10
2023-04-09T02:38:09.311Z,57.20
2023-04-09T02:39:09.273Z,54.10
2023-04-09T02:40:09.245Z,52.80
2023-04-09T02:41:09.265Z,53.40
2023-04-09T02:42:09.231Z,52.00
2023-04-09T02:43:09.215Z,51.80
2023-04-09T02:44:09.212Z,51.00
2023-04-09T02:45:09.215Z,52.80
2023-04-09T02:46:09.189Z,53.70
2023-04-09T02:47:09.226Z,54.40
2023-04-09T02:48:09.142Z,52.70
2023-04-09T02:49:09.152Z,55.30
2023-04-09T02:50:09.152Z,53.70
2023-04-09T02:51:09.112Z,53.90
2023-04-09T02:52:09.105Z,53.70
2023-04-09T02:53:09.104Z,53.20
2023-04-09T02:54:09.071Z,54.40
2023-04-09T02:55:09.060Z,53.20
2023-04-09T02:56:09.081Z,53.00
2023-04-09T02:57:09.076Z,54.20
2023-04-09T02:58:09.026Z,54.50
2023-04-09T02:59:09.014Z,52.90
2023-04-09T03:00:09.007Z,54.80
2023-04-09T03:01:09.119Z,55.00
2023-04-09T03:02:09.059Z,54.50
2023-04-09T03:03:09.106Z,56.30
2023-04-09T03:04:09.027Z,54.90
2023-04-09T03:05:08.938Z,55.70
2023-04-09T03:06:08.931Z,55.00
2023-04-09T03:07:08.909Z,52.40
2023-04-09T03:08:08.932Z,51.70
2023-04-09T03:09:08.882Z,52.90
2023-04-09T03:10:08.900Z,51.10
2023-04-09T03:11:08.866Z,52.00
2023-04-09T03:12:08.884Z,56.10
2023-04-09T03:13:08.872Z,54.10
2023-04-09T03:14:08.823Z,54.20
2023-04-09T03:15:08.821Z,55.90
2023-04-09T03:16:08.825Z,55.70
2023-04-09T03:17:08.806Z,56.30
2023-04-09T03:18:08.873Z,54.40
2023-04-09T03:19:08.795Z,55.70
2023-04-09T03:20:08.770Z,55.80
2023-04-09T03:21:08.745Z,53.50
2023-04-09T03:22:08.740Z,55.30
2023-04-09T03:23:08.709Z,55.30
2023-04-09T03:24:08.728Z,53.70
2023-04-09T03:25:08.717Z,55.00
2023-04-09T03:26:08.692Z,54.60
2023-04-09T03:27:08.676Z,52.50
2023-04-09T03:28:08.646Z,53.30
2023-04-09T03:29:08.644Z,53.30
2023-04-09T03:30:08.668Z,52.50
2023-04-09T03:31:08.701Z,52.90
2023-04-09T03:32:08.645Z,51.60
2023-04-09T03:33:08.612Z,56.50
2023-04-09T03:34:08.569Z,53.60
2023-04-09T03:35:08.580Z,49.10
2023-04-09T03:36:08.588Z,50.90
2023-04-09T03:37:08.563Z,50.30
2023-04-09T03:38:08.562Z,48.70
2023-04-09T03:39:08.512Z,47.90
2023-04-09T03:40:08.498Z,47.70
2023-04-09T03:41:08.553Z,48.80
2023-04-09T03:42:08.501Z,48.90
2023-04-09T03:43:08.461Z,47.90
2023-04-09T03:44:08.486Z,48.60
2023-04-09T03:45:08.436Z,48.60
2023-04-09T03:46:08.448Z,50.40
2023-04-09T03:47:08.459Z,48.70
2023-04-09T03:48:08.440Z,49.40
2023-04-09T03:49:08.429Z,53.70
2023-04-09T03:50:08.378Z,53.80
2023-04-09T03:51:08.377Z,54.40
2023-04-09T03:52:08.349Z,59.10
2023-04-09T03:53:08.369Z,61.20
2023-04-09T03:54:08.351Z,63.50
2023-04-09T03:55:08.334Z,62.60
2023-04-09T03:56:08.305Z,57.60
2023-04-09T03:57:08.299Z,54.90
2023-04-09T03:58:08.275Z,52.70
2023-04-09T03:59:08.279Z,52.30
2023-04-09T04:00:08.249Z,50.10
2023-04-09T04:01:08.251Z,49.20
2023-04-09T04:02:08.366Z,51.80
2023-04-09T04:03:08.341Z,51.10
2023-04-09T04:04:08.230Z,49.00
2023-04-09T04:05:08.209Z,50.70
2023-04-09T04:06:08.187Z,50.10
2023-04-09T04:07:08.163Z,49.40
2023-04-09T04:08:08.159Z,48.20
2023-04-09T04:09:08.165Z,49.00
2023-04-09T04:10:08.123Z,47.20
2023-04-09T04:11:08.133Z,49.60
2023-04-09T04:12:08.101Z,47.50
2023-04-09T04:13:08.127Z,48.80
2023-04-09T04:14:08.084Z,47.20
2023-04-09T04:15:08.059Z,47.60
2023-04-09T04:16:08.089Z,48.30
2023-04-09T04:17:08.046Z,47.30
2023-04-09T04:18:08.034Z,46.40
2023-04-09T04:19:08.012Z,47.20
2023-04-09T04:20:07.994Z,45.70
2023-04-09T04:21:07.991Z,47.30
2023-04-09T04:22:08.015Z,45.90
2023-04-09T04:23:07.950Z,45.90
2023-04-09T04:24:07.955Z,45.30
2023-04-09T04:25:07.981Z,45.50
2023-04-09T04:26:07.933Z,45.30
2023-04-09T04:27:07.892Z,45.40
2023-04-09T04:28:07.920Z,46.20
2023-04-09T04:29:07.886Z,45.20
2023-04-09T04:30:07.872Z,46.80
2023-04-09T04:31:07.872Z,44.80
2023-04-09T04:32:07.837Z,46.40
2023-04-09T04:33:07.830Z,45.90
2023-04-09T04:34:07.847Z,46.60
2023-04-09T04:35:07.835Z,45.50
2023-04-09T04:36:07.808Z,45.50
2023-04-09T04:37:07.776Z,45.40
2023-04-09T04:38:07.803Z,45.70
2023-04-09T04:39:07.741Z,44.60
2023-04-09T04:40:07.786Z,45.50
2023-04-09T04:41:07.722Z,46.00
2023-04-09T04:42:07.723Z,45.30
2023-04-09T04:43:07.710Z,44.90
2023-04-09T04:44:07.749Z,46.20
2023-04-09T04:45:07.717Z,46.40
2023-04-09T04:46:07.742Z,45.50
2023-04-09T04:47:07.748Z,46.50
2023-04-09T04:48:07.701Z,45.80
2023-04-09T04:49:07.635Z,47.50
2023-04-09T04:50:07.615Z,47.50
2023-04-09T04:51:07.630Z,50.90
2023-04-09T04:52:07.597Z,51.00
2023-04-09T04:53:07.584Z,53.80
2023-04-09T04:54:07.574Z,59.40
2023-04-09T04:55:07.582Z,59.10
2023-04-09T04:56:07.578Z,60.70
2023-04-09T04:57:07.528Z,57.10
2023-04-09T04:58:07.546Z,54.50
2023-04-09T04:59:07.539Z,53.50
2023-04-09T05:00:07.486Z,52.20
2023-04-09T05:01:07.520Z,55.40
2023-04-09T05:02:07.523Z,54.60
2023-04-09T05:03:07.512Z,52.90
2023-04-09T05:04:07.439Z,52.70
2023-04-09T05:05:07.422Z,52.00
2023-04-09T05:06:07.421Z,49.70
2023-04-09T05:07:07.392Z,51.00
2023-04-09T05:08:07.538Z,50.50
2023-04-09T05:09:07.404Z,48.80
2023-04-09T05:10:07.393Z,48.40
2023-04-09T05:11:07.358Z,48.50
2023-04-09T05:12:07.336Z,46.20
2023-04-09T05:13:07.341Z,45.80
2023-04-09T05:14:07.394Z,43.80
2023-04-09T05:15:07.311Z,46.90
2023-04-09T05:16:07.279Z,45.20
2023-04-09T05:17:07.279Z,44.70
2023-04-09T05:18:07.303Z,44.90
2023-04-09T05:19:07.313Z,45.10
2023-04-09T05:20:07.257Z,43.30
2023-04-09T05:21:07.222Z,45.80
2023-04-09T05:22:07.210Z,44.20
2023-04-09T05:23:07.197Z,45.60
2023-04-09T05:24:07.210Z,46.20
2023-04-09T05:25:07.192Z,45.00
2023-04-09T05:26:07.215Z,42.90
2023-04-09T05:27:07.167Z,41.00
2023-04-09T05:28:07.150Z,41.10
2023-04-09T05:29:07.123Z,40.50
2023-04-09T05:30:07.114Z,40.10
2023-04-09T05:31:07.129Z,40.10
2023-04-09T05:32:07.114Z,38.90
2023-04-09T05:33:07.069Z,40.00
2023-04-09T05:34:07.070Z,38.60
2023-04-09T05:35:07.062Z,38.20
2023-04-09T05:36:07.092Z,37.00
2023-04-09T05:37:07.045Z,36.40
2023-04-09T05:38:07.021Z,36.60
2023-04-09T05:39:07.010Z,35.70
2023-04-09T05:40:07.029Z,34.20
2023-04-09T05:41:06.987Z,34.90
2023-04-09T05:42:06.991Z,35.00
2023-04-09T05:43:06.964Z,32.90
2023-04-09T05:44:06.973Z,34.40
2023-04-09T05:45:06.973Z,36.10
2023-04-09T05:46:06.985Z,39.30
2023-04-09T05:47:06.892Z,38.10
2023-04-09T05:48:06.932Z,41.00
2023-04-09T05:49:06.892Z,40.10
2023-04-09T05:50:06.882Z,37.70
2023-04-09T05:51:06.861Z,42.80
2023-04-09T05:52:06.829Z,38.30
2023-04-09T05:53:06.823Z,32.60
2023-04-09T05:54:06.856Z,39.80
2023-04-09T05:55:06.832Z,38.40
2023-04-09T05:56:06.790Z,32.20
2023-04-09T05:57:06.781Z,34.30
2023-04-09T05:58:06.771Z,31.90
2023-04-09T05:59:06.757Z,31.00
2023-04-09T06:00:06.768Z,31.70
2023-04-09T06:01:06.753Z,31.30
2023-04-09T06:02:06.820Z,31.40
2023-04-09T06:03:06.776Z,30.70
2023-04-09T06:04:06.786Z,29.70
2023-04-09T06:05:06.674Z,30.50
2023-04-09T06:06:06.702Z,31.00
2023-04-09T06:07:06.654Z,30.30
2023-04-09T06:08:06.632Z,29.80
2023-04-09T06:09:06.646Z,28.50
2023-04-09T06:10:06.627Z,29.80
2023-04-09T06:11:06.608Z,32.30
2023-04-09T06:12:06.598Z,34.40
2023-04-09T06:13:06.575Z,30.30
2023-04-09T06:14:06.563Z,28.90
2023-04-09T06:15:06.563Z,28.20
2023-04-09T06:16:06.557Z,29.70
2023-04-09T06:17:06.543Z,29.60
2023-04-09T06:18:06.668Z,27.30
2023-04-09T06:19:06.505Z,27.70
2023-04-09T06:20:06.512Z,29.00
2023-04-09T06:21:06.534Z,27.40
2023-04-09T06:22:06.478Z,28.00
2023-04-09T06:23:06.454Z,27.50
2023-04-09T06:24:06.472Z,26.40
2023-04-09T06:25:06.405Z,26.10
2023-04-09T06:26:06.441Z,25.90
2023-04-09T06:27:06.575Z,25.60
2023-04-09T06:28:06.384Z,26.30
2023-04-09T06:29:06.402Z,25.90
2023-04-09T06:30:06.397Z,25.10
2023-04-09T06:31:06.411Z,24.90
2023-04-09T06:32:06.353Z,24.60
2023-04-09T06:33:06.348Z,24.70
2023-04-09T06:34:06.298Z,24.60
2023-04-09T06:35:06.309Z,23.80
2023-04-09T06:36:06.333Z,24.60
2023-04-09T06:37:06.301Z,24.40
2023-04-09T06:38:06.257Z,24.10
2023-04-09T06:39:06.258Z,23.70
2023-04-09T06:40:06.248Z,25.00
2023-04-09T06:41:06.211Z,23.10
2023-04-09T06:42:06.236Z,23.80
2023-04-09T06:43:06.275Z,23.90
2023-04-09T06:44:06.183Z,23.40
2023-04-09T06:45:06.159Z,23.00
2023-04-09T06:46:06.188Z,23.50
2023-04-09T06:47:06.200Z,24.10
2023-04-09T06:48:06.127Z,23.60
2023-04-09T06:49:06.122Z,23.90
2023-04-09T06:50:06.130Z,23.40
2023-04-09T06:51:06.099Z,24.20
2023-04-09T06:52:06.098Z,23.20
2023-04-09T06:53:06.084Z,23.20
2023-04-09T06:54:06.074Z,22.50
2023-04-09T06:55:06.125Z,23.90
2023-04-09T06:56:06.204Z,23.60
2023-04-09T06:57:06.024Z,22.60
2023-04-09T06:58:06.033Z,22.60
2023-04-09T06:59:05.999Z,22.90
2023-04-09T07:00:05.982Z,22.00
2023-04-09T07:01:05.967Z,21.50
2023-04-09T07:02:06.137Z,22.30
2023-04-09T07:03:06.129Z,21.00
2023-04-09T07:04:06.016Z,22.20
2023-04-09T07:05:05.962Z,20.20
2023-04-09T07:06:05.930Z,20.30
2023-04-09T07:07:05.873Z,21.20
2023-04-09T07:08:05.868Z,21.60
2023-04-09T07:09:05.848Z,20.90
2023-04-09T07:10:05.857Z,22.10
2023-04-09T07:11:05.853Z,22.70
2023-04-09T07:12:05.822Z,22.70
2023-04-09T07:13:05.831Z,20.90
2023-04-09T07:14:05.808Z,21.60
2023-04-09T07:15:05.826Z,21.30
2023-04-09T07:16:05.826Z,20.90
2023-04-09T07:17:05.750Z,20.90
2023-04-09T07:18:05.834Z,21.30
2023-04-09T07:19:05.739Z,28.20
2023-04-09T07:20:05.738Z,21.00
2023-04-09T07:21:05.725Z,21.70
2023-04-09T07:22:05.690Z,20.80
2023-04-09T07:23:05.688Z,20.90
2023-04-09T07:24:05.716Z,21.00
2023-04-09T07:25:05.695Z,20.80
2023-04-09T07:26:05.711Z,19.50
2023-04-09T07:27:05.746Z,21.10
2023-04-09T07:28:05.635Z,20.80
2023-04-09T07:29:05.627Z,20.50
2023-04-09T07:30:05.598Z,20.20
2023-04-09T07:31:05.603Z,19.60
2023-04-09T07:32:05.649Z,20.30
2023-04-09T07:33:05.591Z,19.00
2023-04-09T07:34:05.629Z,19.30
2023-04-09T07:35:05.519Z,17.40
2023-04-09T07:36:05.540Z,18.90
2023-04-09T07:37:05.541Z,18.70
2023-04-09T07:38:05.516Z,18.70
2023-04-09T07:39:05.497Z,18.90
2023-04-09T07:40:05.454Z,18.50
2023-04-09T07:41:05.753Z,19.20
2023-04-09T07:42:05.435Z,18.70
2023-04-09T07:43:05.439Z,19.00
2023-04-09T07:44:05.424Z,19.10
2023-04-09T07:45:05.404Z,19.30
2023-04-09T07:46:05.395Z,19.80
2023-04-09T07:47:05.462Z,19.50
2023-04-09T07:48:05.422Z,18.70
2023-04-09T07:49:05.362Z,19.10
2023-04-09T07:50:05.353Z,19.40
2023-04-09T07:51:05.319Z,19.70
2023-04-09T07:52:05.329Z,20.00
2023-04-09T07:53:05.300Z,19.30
2023-04-09T07:54:05.283Z,20.90
2023-04-09T07:55:05.284Z,20.70
2023-04-09T07:56:05.278Z,19.50
2023-04-09T07:57:05.247Z,20.30
2023-04-09T07:58:05.269Z,21.40
2023-04-09T07:59:05.226Z,20.10
2023-04-09T08:00:05.226Z,20.10
2023-04-09T08:01:05.223Z,21.10
2023-04-09T08:02:05.242Z,18.80
2023-04-09T08:03:05.459Z,19.30
2023-04-09T08:04:05.390Z,19.80
2023-04-09T08:05:05.216Z,20.00
2023-04-09T08:06:05.140Z,19.60
2023-04-09T08:07:05.146Z,20.00
2023-04-09T08:08:05.120Z,19.10
2023-04-09T08:09:05.115Z,19.40
2023-04-09T08:10:05.100Z,20.30
2023-04-09T08:11:05.071Z,20.40
2023-04-09T08:12:05.060Z,19.50
2023-04-09T08:13:05.079Z,19.60
2023-04-09T08:14:05.047Z,18.80
2023-04-09T08:15:05.044Z,18.90
2023-04-09T08:16:05.025Z,19.30
2023-04-09T08:17:05.006Z,18.40
2023-04-09T08:18:05.006Z,19.20
2023-04-09T08:19:04.998Z,19.30
2023-04-09T08:20:04.977Z,19.30
2023-04-09T08:21:04.945Z,18.90
2023-04-09T08:22:04.937Z,19.60
2023-04-09T08:23:04.934Z,19.50
2023-04-09T08:24:04.938Z,19.20
2023-04-09T08:25:04.958Z,19.20
2023-04-09T08:26:04.900Z,19.90
2023-04-09T08:27:04.881Z,20.00
2023-04-09T08:28:04.884Z,19.30
2023-04-09T08:29:04.857Z,19.40
2023-04-09T08:30:04.860Z,18.10
2023-04-09T08:31:04.824Z,18.90
2023-04-09T08:32:04.843Z,19.80
2023-04-09T08:33:04.838Z,19.70
2023-04-09T08:34:04.792Z,19.40
2023-04-09T08:35:04.938Z,20.10
2023-04-09T08:36:04.842Z,19.50
2023-04-09T08:37:04.781Z,19.10
2023-04-09T08:38:04.754Z,19.20
2023-04-09T08:39:04.768Z,18.70
2023-04-09T08:40:04.797Z,18.80
2023-04-09T08:41:04.700Z,19.00
2023-04-09T08:42:04.697Z,18.90
2023-04-09T08:43:04.691Z,19.70
2023-04-09T08:44:04.737Z,19.90
2023-04-09T08:45:04.664Z,18.10
2023-04-09T08:46:04.807Z,18.90
2023-04-09T08:47:04.641Z,18.20
2023-04-09T08:48:04.701Z,18.00
2023-04-09T08:49:04.599Z,18.20
2023-04-09T08:50:04.600Z,18.40
2023-04-09T08:51:04.573Z,18.30
2023-04-09T08:52:04.737Z,17.40
2023-04-09T08:53:04.604Z,17.00
2023-04-09T08:54:05.149Z,17.80
2023-04-09T08:55:04.601Z,17.90
2023-04-09T08:56:04.504Z,18.10
2023-04-09T08:57:04.548Z,17.70
2023-04-09T08:58:04.489Z,17.20
2023-04-09T08:59:04.765Z,17.20
2023-04-09T09:00:04.465Z,17.10
2023-04-09T09:01:04.463Z,17.70
2023-04-09T09:02:04.548Z,15.10
2023-04-09T09:03:04.827Z,15.70
2023-04-09T09:04:04.642Z,15.90
2023-04-09T09:05:04.462Z,16.10
2023-04-09T09:06:04.395Z,16.30
2023-04-09T09:07:04.394Z,16.80
2023-04-09T09:08:04.365Z,16.50
2023-04-09T09:09:04.352Z,16.30
2023-04-09T09:10:04.345Z,17.40
2023-04-09T09:11:04.361Z,15.70
2023-04-09T09:12:04.308Z,15.80
2023-04-09T09:13:04.318Z,17.40
2023-04-09T09:14:04.336Z,15.00
2023-04-09T09:15:04.289Z,15.40
2023-04-09T09:16:04.271Z,15.40
2023-04-09T09:17:04.307Z,15.30
2023-04-09T09:18:04.328Z,16.00
2023-04-09T09:19:04.227Z,16.90
2023-04-09T09:20:04.234Z,15.60
2023-04-09T09:21:05.174Z,16.30
2023-04-09T09:22:04.225Z,15.40
2023-04-09T09:23:04.206Z,15.10
2023-04-09T09:24:04.166Z,15.80
2023-04-09T09:25:04.164Z,16.50
2023-04-09T09:26:04.143Z,15.10
2023-04-09T09:27:04.130Z,15.50
2023-04-09T09:28:04.123Z,14.90
2023-04-09T09:29:04.125Z,14.50
2023-04-09T09:30:04.132Z,15.00
2023-04-09T09:31:04.151Z,14.50
2023-04-09T09:32:04.083Z,15.40
2023-04-09T09:33:04.052Z,13.90
2023-04-09T09:34:04.041Z,14.80
2023-04-09T09:35:04.060Z,14.30
2023-04-09T09:36:04.098Z,14.50
2023-04-09T09:37:04.023Z,14.60
2023-04-09T09:38:04.055Z,14.30
2023-04-09T09:39:03.981Z,14.50
2023-04-09T09:40:03.990Z,13.80
2023-04-09T09:41:03.973Z,13.90
2023-04-09T09:42:03.938Z,14.50
2023-04-09T09:43:03.961Z,15.20
2023-04-09T09:44:03.923Z,15.20
2023-04-09T09:45:03.938Z,14.10
2023-04-09T09:46:03.958Z,13.60
2023-04-09T09:47:03.887Z,14.00
2023-04-09T09:48:03.944Z,13.60
2023-04-09T09:49:03.863Z,13.30
2023-04-09T09:50:03.876Z,13.10
2023-04-09T09:51:03.883Z,12.90
2023-04-09T09:52:03.846Z,12.90
2023-04-09T09:53:03.842Z,13.50
2023-04-09T09:54:03.811Z,12.90
2023-04-09T09:55:03.803Z,13.00
2023-04-09T09:56:03.827Z,13.70
2023-04-09T09:57:03.769Z,12.50
2023-04-09T09:58:03.766Z,13.70
2023-04-09T09:59:03.812Z,11.60
2023-04-09T10:00:03.743Z,12.80
2023-04-09T10:01:03.757Z,12.50
2023-04-09T10:02:03.818Z,14.10
2023-04-09T10:03:03.843Z,12.50
2023-04-09T10:04:03.715Z,13.40
2023-04-09T10:05:03.695Z,12.20
2023-04-09T10:06:03.715Z,12.00
2023-04-09T10:07:03.710Z,12.70
2023-04-09T10:08:03.633Z,13.60
2023-04-09T10:09:03.644Z,12.30
2023-04-09T10:10:03.663Z,11.30
2023-04-09T10:11:03.601Z,10.90
2023-04-09T10:12:03.664Z,10.70
2023-04-09T10:13:03.645Z,11.40
2023-04-09T10:14:03.593Z,11.90
2023-04-09T10:15:03.567Z,12.00
2023-04-09T10:16:03.585Z,13.00
2023-04-09T10:17:03.571Z,12.10
2023-04-09T10:18:03.585Z,12.50
2023-04-09T10:19:03.536Z,12.80
2023-04-09T10:20:03.581Z,11.60
2023-04-09T10:21:03.476Z,11.60
2023-04-09T10:22:03.484Z,11.70
2023-04-09T10:23:03.465Z,10.50
2023-04-09T10:24:03.469Z,9.50
2023-04-09T10:25:03.445Z,10.20
2023-04-09T10:26:03.418Z,9.60
2023-04-09T10:27:03.414Z,10.20
2023-04-09T10:28:03.386Z,9.60
2023-04-09T10:29:03.404Z,9.40
2023-04-09T10:30:03.388Z,10.70
2023-04-09T10:31:03.433Z,10.00
2023-04-09T10:32:03.370Z,9.70
2023-04-09T10:33:03.389Z,9.90
2023-04-09T10:34:03.360Z,8.50
2023-04-09T10:35:03.361Z,7.90
2023-04-09T10:36:03.358Z,7.00
2023-04-09T10:37:03.295Z,7.70
2023-04-09T10:38:03.293Z,7.70
2023-04-09T10:39:03.299Z,7.70
2023-04-09T10:40:03.275Z,7.80
2023-04-09T10:41:03.243Z,8.30
2023-04-09T10:42:03.274Z,9.00
2023-04-09T10:43:03.259Z,7.00
2023-04-09T10:44:03.233Z,6.70
2023-04-09T10:45:03.215Z,5.80
2023-04-09T10:46:03.263Z,5.70
2023-04-09T10:47:03.176Z,5.70
2023-04-09T10:48:03.240Z,7.40
2023-04-09T10:49:03.139Z,8.00
2023-04-09T10:50:03.147Z,7.50
2023-04-09T10:51:03.126Z,7.50
2023-04-09T10:52:03.134Z,5.90
2023-04-09T10:53:03.152Z,5.60
2023-04-09T10:54:03.110Z,5.90
2023-04-09T10:55:03.074Z,5.70
2023-04-09T10:56:03.044Z,6.20
2023-04-09T10:57:03.084Z,5.70
2023-04-09T10:58:03.028Z,6.00
2023-04-09T10:59:03.040Z,5.50
2023-04-09T11:00:03.041Z,6.00
2023-04-09T11:01:02.995Z,5.90
2023-04-09T11:02:03.129Z,5.70
2023-04-09T11:03:03.117Z,6.00
2023-04-09T11:04:03.001Z,5.30
2023-04-09T11:05:03.041Z,5.40
2023-04-09T11:06:02.966Z,5.70
2023-04-09T11:07:02.945Z,5.60
2023-04-09T11:08:02.904Z,5.50
2023-04-09T11:09:03.204Z,5.00
2023-04-09T11:10:02.889Z,5.20
2023-04-09T11:11:02.873Z,5.00
2023-04-09T11:12:02.867Z,4.90
2023-04-09T14:39:49.182Z,2.10
2023-04-09T14:40:50.167Z,2.50
2023-04-09T14:41:50.144Z,2.10
2023-04-09T14:42:50.188Z,2.70
2023-04-09T14:43:50.116Z,2.30
2023-04-09T14:44:50.127Z,2.30
2023-04-09T14:45:50.106Z,2.30
2023-04-09T14:46:50.139Z,2.30
2023-04-09T14:47:50.090Z,2.20
2023-04-09T14:48:50.085Z,2.10
2023-04-09T14:49:50.059Z,2.10
2023-04-09T14:50:50.044Z,2.00
2023-04-09T14:51:50.025Z,2.20
2023-04-09T14:52:49.988Z,2.20
2023-04-09T14:53:49.992Z,2.30
2023-04-09T14:54:49.963Z,2.20
2023-04-09T14:55:50.146Z,2.30
2023-04-09T14:56:49.972Z,2.20
2023-04-09T14:57:49.945Z,2.60
2023-04-09T14:58:49.964Z,2.20
2023-04-09T14:59:49.912Z,1.90
2023-04-09T15:00:49.895Z,2.20
2023-04-09T15:01:49.961Z,2.10
2023-04-09T15:02:50.088Z,2.10
2023-04-09T15:03:50.041Z,1.90
2023-04-09T15:04:50.032Z,2.00
2023-04-09T15:05:50.258Z,1.90
2023-04-09T15:06:49.832Z,2.10
2023-04-09T15:07:49.847Z,2.10
2023-04-09T15:08:49.805Z,2.00
2023-04-09T15:09:49.780Z,1.90
2023-04-09T15:10:50.412Z,1.90
2023-04-09T15:11:49.751Z,2.00
2023-04-09T15:12:49.761Z,1.80
2023-04-09T15:13:49.836Z,1.90
2023-04-09T15:14:49.835Z,1.90
2023-04-09T15:15:49.726Z,2.00
2023-04-09T15:16:49.750Z,2.00
2023-04-09T15:17:49.857Z,2.00
2023-04-09T15:18:49.696Z,2.10
2023-04-09T15:19:49.668Z,2.00
2023-04-09T15:20:49.632Z,1.90
2023-04-09T15:21:49.654Z,2.00
2023-04-09T15:22:49.652Z,2.00
2023-04-09T15:23:49.606Z,1.80
2023-04-09T15:24:49.600Z,1.90
2023-04-09T15:25:49.586Z,2.00
2023-04-09T15:26:49.567Z,2.00
2023-04-09T15:27:49.657Z,2.10
2023-04-09T15:28:49.549Z,1.90
2023-04-09T15:29:49.540Z,1.90
2023-04-09T15:30:49.536Z,1.80
2023-04-09T15:31:49.580Z,1.90
2023-04-09T15:32:49.509Z,2.00
2023-04-09T15:33:49.653Z,1.90
2023-04-09T15:34:49.502Z,2.20
2023-04-09T15:35:49.513Z,2.30
2023-04-09T15:36:49.583Z,1.90
2023-04-09T15:37:49.425Z,1.90
2023-04-09T15:38:49.601Z,2.00
2023-04-09T15:39:49.616Z,1.90
2023-04-09T15:40:49.381Z,1.70
2023-04-09T15:41:49.435Z,1.90
2023-04-09T15:42:49.372Z,1.80
2023-04-09T15:43:49.925Z,1.80
2023-04-09T15:44:49.369Z,1.80
2023-04-09T15:45:49.374Z,1.90
2023-04-09T15:46:49.292Z,1.90
2023-04-09T15:47:49.313Z,1.70
2023-04-09T15:48:49.478Z,1.80
2023-04-09T15:49:49.277Z,1.80
2023-04-09T15:50:49.244Z,1.90
2023-04-09T15:51:49.240Z,1.70
2023-04-09T15:52:49.449Z,1.80
2023-04-09T15:53:49.209Z,2.00
2023-04-09T15:54:49.215Z,2.00
2023-04-09T15:55:49.204Z,1.90
2023-04-09T15:56:49.223Z,1.70
2023-04-09T15:57:49.166Z,1.80
2023-04-09T15:58:49.157Z,1.80
2023-04-09T15:59:49.137Z,1.90
2023-04-09T16:00:49.136Z,1.70
2023-04-09T16:01:49.222Z,1.90
2023-04-09T16:02:49.101Z,1.90
2023-04-09T16:03:49.119Z,1.70
2023-04-09T16:04:49.102Z,1.70
2023-04-09T16:05:49.083Z,1.80
2023-04-09T16:06:49.061Z,1.90
2023-04-09T16:07:49.029Z,1.90
2023-04-09T16:08:49.051Z,2.00
2023-04-09T16:09:49.000Z,1.90
2023-04-09T16:10:48.996Z,1.80
2023-04-09T16:11:48.991Z,1.80
2023-04-09T16:12:48.963Z,1.80
2023-04-09T16:13:48.983Z,1.90
2023-04-09T16:14:48.942Z,1.80
2023-04-09T16:15:48.931Z,1.60
2023-04-09T16:16:49.002Z,1.70
2023-04-09T16:17:48.961Z,1.70
2023-04-09T16:18:48.893Z,1.70
2023-04-09T16:19:48.885Z,1.80
2023-04-09T16:20:48.874Z,1.90
2023-04-09T16:21:48.887Z,1.80
2023-04-09T16:22:48.877Z,1.70
2023-04-09T16:23:48.837Z,1.80